sensor_id;sensor_type;location;lat;lon;timestamp;P1;durP1;ratioP1;P2;durP2;ratioP2
45392;SDS011;31129;44.810;10.334;2024-03-23T00:53:46;12.80;;;8.43;;
45392;SDS011;31129;44.810;10.334;2024-03-23T00:56:12;13.13;;;9.02;;
45392;SDS011;31129;44.810;10.334;2024-03-23T00:58:37;16.75;;;9.07;;
45392;SDS011;31129;44.810;10.334;2024-03-23T01:01:03;13.65;;;8.93;;
45392;SDS011;31129;44.810;10.334;2024-03-23T01:05:59;14.43;;;10.02;;
45392;SDS011;31129;44.810;10.334;2024-03-23T01:08:25;18.08;;;9.80;;
45392;SDS011;31129;44.810;10.334;2024-03-23T01:10:55;16.65;;;8.90;;
45392;SDS011;31129;44.810;10.334;2024-03-23T01:13:23;13.07;;;9.13;;
45392;SDS011;31129;44.810;10.334;2024-03-23T01:15:49;13.55;;;8.93;;
45392;SDS011;31129;44.810;10.334;2024-03-23T01:18:16;12.05;;;8.35;;
45392;SDS011;31129;44.810;10.334;2024-03-23T01:20:43;11.30;;;7.85;;
45392;SDS011;31129;44.810;10.334;2024-03-23T01:23:08;13.73;;;8.27;;
45392;SDS011;31129;44.810;10.334;2024-03-23T01:25:34;16.13;;;7.63;;
45392;SDS011;31129;44.810;10.334;2024-03-23T01:27:59;10.73;;;7.68;;
45392;SDS011;31129;44.810;10.334;2024-03-23T01:30:25;9.98;;;7.20;;
45392;SDS011;31129;44.810;10.334;2024-03-23T01:32:50;9.20;;;6.70;;
45392;SDS011;31129;44.810;10.334;2024-03-23T01:35:15;9.30;;;6.50;;
45392;SDS011;31129;44.810;10.334;2024-03-23T01:37:41;11.63;;;7.60;;
45392;SDS011;31129;44.810;10.334;2024-03-23T01:40:06;10.50;;;6.88;;
45392;SDS011;31129;44.810;10.334;2024-03-23T01:42:32;12.88;;;7.53;;
45392;SDS011;31129;44.810;10.334;2024-03-23T01:44:58;12.80;;;6.90;;
45392;SDS011;31129;44.810;10.334;2024-03-23T01:47:23;10.70;;;7.00;;
45392;SDS011;31129;44.810;10.334;2024-03-23T01:49:49;11.05;;;6.80;;
45392;SDS011;31129;44.810;10.334;2024-03-23T01:52:14;11.10;;;6.90;;
45392;SDS011;31129;44.810;10.334;2024-03-23T01:54:40;13.98;;;6.72;;
45392;SDS011;31129;44.810;10.334;2024-03-23T01:57:06;9.02;;;6.90;;
45392;SDS011;31129;44.810;10.334;2024-03-23T01:59:31;9.52;;;7.28;;
45392;SDS011;31129;44.810;10.334;2024-03-23T02:01:57;10.73;;;6.97;;
45392;SDS011;31129;44.810;10.334;2024-03-23T02:04:23;15.35;;;7.40;;
45392;SDS011;31129;44.810;10.334;2024-03-23T02:06:51;11.93;;;7.28;;
45392;SDS011;31129;44.810;10.334;2024-03-23T02:09:17;10.80;;;7.40;;
45392;SDS011;31129;44.810;10.334;2024-03-23T02:11:43;12.05;;;6.97;;
45392;SDS011;31129;44.810;10.334;2024-03-23T02:14:11;10.30;;;7.15;;
45392;SDS011;31129;44.810;10.334;2024-03-23T02:16:36;9.90;;;7.15;;
45392;SDS011;31129;44.810;10.334;2024-03-23T02:19:02;12.23;;;7.10;;
45392;SDS011;31129;44.810;10.334;2024-03-23T02:21:27;16.17;;;7.57;;
45392;SDS011;31129;44.810;10.334;2024-03-23T02:23:57;10.50;;;7.45;;
45392;SDS011;31129;44.810;10.334;2024-03-23T02:26:23;15.27;;;8.02;;
45392;SDS011;31129;44.810;10.334;2024-03-23T02:28:49;14.23;;;7.43;;
45392;SDS011;31129;44.810;10.334;2024-03-23T02:31:14;13.32;;;8.52;;
45392;SDS011;31129;44.810;10.334;2024-03-23T02:33:40;9.85;;;7.13;;
45392;SDS011;31129;44.810;10.334;2024-03-23T02:36:06;12.73;;;6.97;;
45392;SDS011;31129;44.810;10.334;2024-03-23T02:38:32;11.77;;;6.90;;
45392;SDS011;31129;44.810;10.334;2024-03-23T02:41:01;8.73;;;6.47;;
45392;SDS011;31129;44.810;10.334;2024-03-23T02:43:30;14.13;;;8.43;;
45392;SDS011;31129;44.810;10.334;2024-03-23T02:45:55;9.10;;;6.35;;
45392;SDS011;31129;44.810;10.334;2024-03-23T02:48:21;13.40;;;6.20;;
45392;SDS011;31129;44.810;10.334;2024-03-23T02:50:46;10.45;;;6.78;;
45392;SDS011;31129;44.810;10.334;2024-03-23T02:53:11;13.40;;;6.47;;
45392;SDS011;31129;44.810;10.334;2024-03-23T02:55:37;8.15;;;6.38;;
45392;SDS011;31129;44.810;10.334;2024-03-23T02:58:02;8.30;;;5.80;;
45392;SDS011;31129;44.810;10.334;2024-03-23T03:00:28;8.38;;;5.72;;
45392;SDS011;31129;44.810;10.334;2024-03-23T03:02:54;9.27;;;5.63;;
45392;SDS011;31129;44.810;10.334;2024-03-23T03:05:20;7.03;;;5.10;;
45392;SDS011;31129;44.810;10.334;2024-03-23T03:07:46;8.80;;;6.00;;
45392;SDS011;31129;44.810;10.334;2024-03-23T03:10:11;8.52;;;5.15;;
45392;SDS011;31129;44.810;10.334;2024-03-23T03:12:37;11.15;;;5.13;;
45392;SDS011;31129;44.810;10.334;2024-03-23T03:15:03;10.88;;;5.30;;
45392;SDS011;31129;44.810;10.334;2024-03-23T03:17:30;9.80;;;5.00;;
45392;SDS011;31129;44.810;10.334;2024-03-23T03:19:56;5.00;;;3.80;;
45392;SDS011;31129;44.810;10.334;2024-03-23T03:22:21;7.43;;;4.32;;
45392;SDS011;31129;44.810;10.334;2024-03-23T03:24:47;6.47;;;3.67;;
45392;SDS011;31129;44.810;10.334;2024-03-23T03:27:13;6.18;;;3.80;;
45392;SDS011;31129;44.810;10.334;2024-03-23T03:29:38;6.63;;;4.30;;
45392;SDS011;31129;44.810;10.334;2024-03-23T03:32:04;8.85;;;3.95;;
45392;SDS011;31129;44.810;10.334;2024-03-23T03:34:29;7.07;;;3.97;;
45392;SDS011;31129;44.810;10.334;2024-03-23T03:36:56;6.40;;;3.90;;
45392;SDS011;31129;44.810;10.334;2024-03-23T03:39:24;6.32;;;3.97;;
45392;SDS011;31129;44.810;10.334;2024-03-23T03:41:50;9.00;;;5.50;;
45392;SDS011;31129;44.810;10.334;2024-03-23T03:44:16;9.57;;;6.35;;
45392;SDS011;31129;44.810;10.334;2024-03-23T03:46:42;11.93;;;6.85;;
45392;SDS011;31129;44.810;10.334;2024-03-23T03:49:07;10.80;;;6.45;;
45392;SDS011;31129;44.810;10.334;2024-03-23T03:51:33;11.52;;;6.47;;
45392;SDS011;31129;44.810;10.334;2024-03-23T03:53:59;10.77;;;6.43;;
45392;SDS011;31129;44.810;10.334;2024-03-23T03:56:25;10.00;;;6.70;;
45392;SDS011;31129;44.810;10.334;2024-03-23T03:58:50;10.40;;;6.80;;
45392;SDS011;31129;44.810;10.334;2024-03-23T04:01:16;10.20;;;6.90;;
45392;SDS011;31129;44.810;10.334;2024-03-23T04:03:42;13.77;;;7.75;;
45392;SDS011;31129;44.810;10.334;2024-03-23T04:06:11;17.80;;;8.00;;
45392;SDS011;31129;44.810;10.334;2024-03-23T04:08:37;15.48;;;8.18;;
45392;SDS011;31129;44.810;10.334;2024-03-23T04:11:03;19.65;;;9.45;;
45392;SDS011;31129;44.810;10.334;2024-03-23T04:13:28;14.82;;;7.88;;
45392;SDS011;31129;44.810;10.334;2024-03-23T04:15:54;11.70;;;8.00;;
45392;SDS011;31129;44.810;10.334;2024-03-23T04:18:20;13.77;;;7.85;;
45392;SDS011;31129;44.810;10.334;2024-03-23T04:20:47;14.38;;;7.45;;
45392;SDS011;31129;44.810;10.334;2024-03-23T04:23:13;12.88;;;8.07;;
45392;SDS011;31129;44.810;10.334;2024-03-23T04:25:39;13.27;;;7.40;;
45392;SDS011;31129;44.810;10.334;2024-03-23T04:28:05;13.38;;;7.53;;
45392;SDS011;31129;44.810;10.334;2024-03-23T04:30:31;16.20;;;8.45;;
45392;SDS011;31129;44.810;10.334;2024-03-23T04:32:57;16.27;;;8.00;;
45392;SDS011;31129;44.810;10.334;2024-03-23T04:35:24;15.43;;;8.63;;
45392;SDS011;31129;44.810;10.334;2024-03-23T04:37:55;14.70;;;7.68;;
45392;SDS011;31129;44.810;10.334;2024-03-23T04:40:24;12.63;;;7.38;;
45392;SDS011;31129;44.810;10.334;2024-03-23T04:42:49;12.95;;;7.60;;
45392;SDS011;31129;44.810;10.334;2024-03-23T04:45:15;13.23;;;7.85;;
45392;SDS011;31129;44.810;10.334;2024-03-23T04:47:44;12.27;;;7.55;;
45392;SDS011;31129;44.810;10.334;2024-03-23T04:50:09;13.98;;;8.10;;
45392;SDS011;31129;44.810;10.334;2024-03-23T04:52:38;14.80;;;7.90;;
45392;SDS011;31129;44.810;10.334;2024-03-23T04:55:03;16.48;;;8.02;;
45392;SDS011;31129;44.810;10.334;2024-03-23T04:57:29;10.57;;;7.40;;
45392;SDS011;31129;44.810;10.334;2024-03-23T04:59:55;13.57;;;9.32;;
45392;SDS011;31129;44.810;10.334;2024-03-23T05:02:21;13.63;;;7.85;;
45392;SDS011;31129;44.810;10.334;2024-03-23T05:04:47;11.85;;;7.53;;
45392;SDS011;31129;44.810;10.334;2024-03-23T05:07:13;9.98;;;7.38;;
45392;SDS011;31129;44.810;10.334;2024-03-23T05:09:38;13.50;;;8.10;;
45392;SDS011;31129;44.810;10.334;2024-03-23T05:12:04;14.20;;;8.95;;
45392;SDS011;31129;44.810;10.334;2024-03-23T05:14:30;22.60;;;12.63;;
45392;SDS011;31129;44.810;10.334;2024-03-23T05:19:24;33.95;;;19.05;;
45392;SDS011;31129;44.810;10.334;2024-03-23T05:21:49;20.67;;;10.02;;
45392;SDS011;31129;44.810;10.334;2024-03-23T05:24:14;34.10;;;20.38;;
45392;SDS011;31129;44.810;10.334;2024-03-23T05:26:40;27.50;;;17.27;;
45392;SDS011;31129;44.810;10.334;2024-03-23T05:29:05;26.95;;;15.93;;
45392;SDS011;31129;44.810;10.334;2024-03-23T05:31:35;26.77;;;15.25;;
45392;SDS011;31129;44.810;10.334;2024-03-23T05:34:01;25.67;;;14.45;;
45392;SDS011;31129;44.810;10.334;2024-03-23T05:36:26;18.95;;;12.90;;
45392;SDS011;31129;44.810;10.334;2024-03-23T05:38:52;28.25;;;14.77;;
45392;SDS011;31129;44.810;10.334;2024-03-23T05:41:17;28.45;;;16.52;;
45392;SDS011;31129;44.810;10.334;2024-03-23T05:43:43;34.58;;;19.33;;
45392;SDS011;31129;44.810;10.334;2024-03-23T05:46:08;27.08;;;14.43;;
45392;SDS011;31129;44.810;10.334;2024-03-23T05:48:34;20.88;;;11.57;;
45392;SDS011;31129;44.810;10.334;2024-03-23T05:51:00;19.15;;;10.85;;
45392;SDS011;31129;44.810;10.334;2024-03-23T05:53:26;13.70;;;8.05;;
45392;SDS011;31129;44.810;10.334;2024-03-23T05:55:59;16.42;;;8.80;;
45392;SDS011;31129;44.810;10.334;2024-03-23T05:58:26;12.27;;;8.50;;
45392;SDS011;31129;44.810;10.334;2024-03-23T06:00:56;17.00;;;9.05;;
45392;SDS011;31129;44.810;10.334;2024-03-23T06:03:24;18.40;;;9.32;;
45392;SDS011;31129;44.810;10.334;2024-03-23T06:05:51;19.10;;;10.18;;
45392;SDS011;31129;44.810;10.334;2024-03-23T06:08:19;18.80;;;10.88;;
45392;SDS011;31129;44.810;10.334;2024-03-23T06:10:47;21.83;;;13.25;;
45392;SDS011;31129;44.810;10.334;2024-03-23T06:13:13;23.30;;;12.88;;
45392;SDS011;31129;44.810;10.334;2024-03-23T06:15:39;18.23;;;12.73;;
45392;SDS011;31129;44.810;10.334;2024-03-23T06:18:04;22.83;;;14.50;;
45392;SDS011;31129;44.810;10.334;2024-03-23T06:20:30;22.20;;;13.93;;
45392;SDS011;31129;44.810;10.334;2024-03-23T06:22:56;29.92;;;15.13;;
45392;SDS011;31129;44.810;10.334;2024-03-23T06:25:25;19.25;;;12.02;;
45392;SDS011;31129;44.810;10.334;2024-03-23T06:27:50;20.77;;;12.30;;
45392;SDS011;31129;44.810;10.334;2024-03-23T06:30:16;33.50;;;12.45;;
45392;SDS011;31129;44.810;10.334;2024-03-23T06:32:41;24.88;;;12.50;;
45392;SDS011;31129;44.810;10.334;2024-03-23T06:35:07;27.85;;;13.55;;
45392;SDS011;31129;44.810;10.334;2024-03-23T06:37:37;29.85;;;16.33;;
45392;SDS011;31129;44.810;10.334;2024-03-23T06:40:04;33.20;;;16.30;;
45392;SDS011;31129;44.810;10.334;2024-03-23T06:42:33;25.92;;;15.93;;
45392;SDS011;31129;44.810;10.334;2024-03-23T06:44:59;30.90;;;18.52;;
45392;SDS011;31129;44.810;10.334;2024-03-23T06:47:24;32.20;;;18.85;;
45392;SDS011;31129;44.810;10.334;2024-03-23T06:49:50;29.70;;;18.27;;
45392;SDS011;31129;44.810;10.334;2024-03-23T06:52:16;29.85;;;19.35;;
45392;SDS011;31129;44.810;10.334;2024-03-23T06:54:42;38.42;;;22.00;;
45392;SDS011;31129;44.810;10.334;2024-03-23T06:57:10;39.60;;;23.30;;
45392;SDS011;31129;44.810;10.334;2024-03-23T06:59:37;38.70;;;23.23;;
45392;SDS011;31129;44.810;10.334;2024-03-23T07:02:04;36.17;;;21.50;;
45392;SDS011;31129;44.810;10.334;2024-03-23T07:04:30;37.47;;;22.35;;
45392;SDS011;31129;44.810;10.334;2024-03-23T07:06:55;33.53;;;21.08;;
45392;SDS011;31129;44.810;10.334;2024-03-23T07:09:21;36.38;;;20.90;;
45392;SDS011;31129;44.810;10.334;2024-03-23T07:11:50;35.50;;;19.50;;
45392;SDS011;31129;44.810;10.334;2024-03-23T07:14:16;36.15;;;19.45;;
45392;SDS011;31129;44.810;10.334;2024-03-23T07:16:41;38.97;;;19.95;;
45392;SDS011;31129;44.810;10.334;2024-03-23T07:19:07;33.25;;;19.98;;
45392;SDS011;31129;44.810;10.334;2024-03-23T07:21:32;20.25;;;11.68;;
45392;SDS011;31129;44.810;10.334;2024-03-23T07:23:58;33.92;;;12.98;;
45392;SDS011;31129;44.810;10.334;2024-03-23T07:26:23;14.75;;;10.05;;
45392;SDS011;31129;44.810;10.334;2024-03-23T07:28:49;14.85;;;7.70;;
45392;SDS011;31129;44.810;10.334;2024-03-23T07:31:14;12.20;;;6.72;;
45392;SDS011;31129;44.810;10.334;2024-03-23T07:33:48;13.18;;;6.50;;
45392;SDS011;31129;44.810;10.334;2024-03-23T07:36:14;11.77;;;6.05;;
45392;SDS011;31129;44.810;10.334;2024-03-23T07:38:43;11.48;;;5.97;;
45392;SDS011;31129;44.810;10.334;2024-03-23T07:41:13;13.07;;;4.78;;
45392;SDS011;31129;44.810;10.334;2024-03-23T07:43:42;7.15;;;4.18;;
45392;SDS011;31129;44.810;10.334;2024-03-23T07:46:07;7.63;;;4.32;;
45392;SDS011;31129;44.810;10.334;2024-03-23T07:48:33;6.57;;;3.53;;
45392;SDS011;31129;44.810;10.334;2024-03-23T07:51:02;12.07;;;4.22;;
45392;SDS011;31129;44.810;10.334;2024-03-23T07:53:30;6.63;;;3.42;;
45392;SDS011;31129;44.810;10.334;2024-03-23T07:56:06;7.63;;;3.33;;
45392;SDS011;31129;44.810;10.334;2024-03-23T07:58:32;6.30;;;3.58;;
45392;SDS011;31129;44.810;10.334;2024-03-23T08:03:36;5.20;;;3.10;;
45392;SDS011;31129;44.810;10.334;2024-03-23T08:06:07;6.20;;;3.00;;
45392;SDS011;31129;44.810;10.334;2024-03-23T08:08:32;4.93;;;2.90;;
45392;SDS011;31129;44.810;10.334;2024-03-23T08:10:58;5.53;;;3.08;;
45392;SDS011;31129;44.810;10.334;2024-03-23T08:13:23;8.10;;;3.50;;
45392;SDS011;31129;44.810;10.334;2024-03-23T08:15:48;5.57;;;2.83;;
45392;SDS011;31129;44.810;10.334;2024-03-23T08:18:17;4.70;;;3.00;;
45392;SDS011;31129;44.810;10.334;2024-03-23T08:20:42;5.47;;;2.97;;
45392;SDS011;31129;44.810;10.334;2024-03-23T08:23:08;5.65;;;2.85;;
45392;SDS011;31129;44.810;10.334;2024-03-23T08:25:34;6.10;;;2.67;;
45392;SDS011;31129;44.810;10.334;2024-03-23T08:28:00;9.73;;;3.22;;
45392;SDS011;31129;44.810;10.334;2024-03-23T08:30:28;6.10;;;3.08;;
45392;SDS011;31129;44.810;10.334;2024-03-23T08:32:54;7.47;;;3.47;;
45392;SDS011;31129;44.810;10.334;2024-03-23T08:35:20;5.45;;;4.30;;
45392;SDS011;31129;44.810;10.334;2024-03-23T08:37:45;8.50;;;6.00;;
45392;SDS011;31129;44.810;10.334;2024-03-23T08:40:11;9.30;;;6.53;;
45392;SDS011;31129;44.810;10.334;2024-03-23T08:42:37;11.32;;;7.93;;
45392;SDS011;31129;44.810;10.334;2024-03-23T08:45:02;14.60;;;8.70;;
45392;SDS011;31129;44.810;10.334;2024-03-23T08:47:34;19.00;;;9.73;;
45392;SDS011;31129;44.810;10.334;2024-03-23T08:50:00;17.65;;;10.98;;
45392;SDS011;31129;44.810;10.334;2024-03-23T08:52:25;17.05;;;12.25;;
45392;SDS011;31129;44.810;10.334;2024-03-23T08:54:53;26.67;;;14.57;;
45392;SDS011;31129;44.810;10.334;2024-03-23T08:57:19;22.60;;;15.80;;
45392;SDS011;31129;44.810;10.334;2024-03-23T08:59:44;28.90;;;18.08;;
45392;SDS011;31129;44.810;10.334;2024-03-23T09:02:10;33.35;;;18.98;;
45392;SDS011;31129;44.810;10.334;2024-03-23T09:04:35;31.92;;;20.48;;
45392;SDS011;31129;44.810;10.334;2024-03-23T09:07:01;33.65;;;19.80;;
45392;SDS011;31129;44.810;10.334;2024-03-23T09:09:26;36.47;;;21.95;;
45392;SDS011;31129;44.810;10.334;2024-03-23T09:11:52;38.63;;;21.55;;
45392;SDS011;31129;44.810;10.334;2024-03-23T09:14:17;36.83;;;20.98;;
45392;SDS011;31129;44.810;10.334;2024-03-23T09:16:42;43.30;;;23.13;;
45392;SDS011;31129;44.810;10.334;2024-03-23T09:19:08;43.42;;;22.00;;
45392;SDS011;31129;44.810;10.334;2024-03-23T09:21:33;46.55;;;25.42;;
45392;SDS011;31129;44.810;10.334;2024-03-23T09:24:02;50.35;;;27.75;;
45392;SDS011;31129;44.810;10.334;2024-03-23T09:26:27;51.28;;;27.90;;
45392;SDS011;31129;44.810;10.334;2024-03-23T09:28:54;49.33;;;30.48;;
45392;SDS011;31129;44.810;10.334;2024-03-23T09:31:20;58.50;;;32.53;;
45392;SDS011;31129;44.810;10.334;2024-03-23T09:33:45;57.13;;;30.45;;
45392;SDS011;31129;44.810;10.334;2024-03-23T09:36:11;51.22;;;29.13;;
45392;SDS011;31129;44.810;10.334;2024-03-23T09:38:36;51.17;;;30.52;;
45392;SDS011;31129;44.810;10.334;2024-03-23T09:41:06;48.95;;;30.40;;
45392;SDS011;31129;44.810;10.334;2024-03-23T09:43:35;47.13;;;27.60;;
45392;SDS011;31129;44.810;10.334;2024-03-23T09:46:02;47.50;;;29.10;;
45392;SDS011;31129;44.810;10.334;2024-03-23T09:48:28;48.97;;;30.70;;
45392;SDS011;31129;44.810;10.334;2024-03-23T09:50:53;54.38;;;31.77;;
45392;SDS011;31129;44.810;10.334;2024-03-23T09:53:19;56.97;;;32.90;;
45392;SDS011;31129;44.810;10.334;2024-03-23T09:55:44;63.83;;;35.25;;
45392;SDS011;31129;44.810;10.334;2024-03-23T09:58:13;61.33;;;34.35;;
45392;SDS011;31129;44.810;10.334;2024-03-23T10:00:46;59.60;;;35.20;;
45392;SDS011;31129;44.810;10.334;2024-03-23T10:03:11;55.47;;;32.47;;
45392;SDS011;31129;44.810;10.334;2024-03-23T10:05:37;58.10;;;32.08;;
45392;SDS011;31129;44.810;10.334;2024-03-23T10:10:58;63.78;;;35.13;;
45392;SDS011;31129;44.810;10.334;2024-03-23T10:13:38;59.42;;;34.80;;
45392;SDS011;31129;44.810;10.334;2024-03-23T10:16:09;62.55;;;33.10;;
45392;SDS011;31129;44.810;10.334;2024-03-23T10:18:38;55.70;;;33.35;;
45392;SDS011;31129;44.810;10.334;2024-03-23T10:23:30;51.30;;;28.60;;
45392;SDS011;31129;44.810;10.334;2024-03-23T10:26:02;65.45;;;33.63;;
45392;SDS011;31129;44.810;10.334;2024-03-23T10:28:37;55.67;;;32.58;;
45392;SDS011;31129;44.810;10.334;2024-03-23T10:31:16;57.30;;;30.05;;
45392;SDS011;31129;44.810;10.334;2024-03-23T10:33:46;53.45;;;29.90;;
45392;SDS011;31129;44.810;10.334;2024-03-23T10:36:12;61.47;;;30.85;;
45392;SDS011;31129;44.810;10.334;2024-03-23T10:38:42;58.50;;;33.03;;
45392;SDS011;31129;44.810;10.334;2024-03-23T10:41:09;46.38;;;24.95;;
45392;SDS011;31129;44.810;10.334;2024-03-23T10:43:38;56.47;;;31.73;;
45392;SDS011;31129;44.810;10.334;2024-03-23T10:46:04;54.83;;;30.27;;
45392;SDS011;31129;44.810;10.334;2024-03-23T10:48:31;54.30;;;31.42;;
45392;SDS011;31129;44.810;10.334;2024-03-23T10:50:57;61.27;;;32.17;;
45392;SDS011;31129;44.810;10.334;2024-03-23T10:53:25;51.38;;;27.40;;
45392;SDS011;31129;44.810;10.334;2024-03-23T10:55:52;44.80;;;27.27;;
45392;SDS011;31129;44.810;10.334;2024-03-23T10:58:19;48.38;;;28.77;;
45392;SDS011;31129;44.810;10.334;2024-03-23T11:00:54;51.78;;;30.30;;
45392;SDS011;31129;44.810;10.334;2024-03-23T11:03:29;35.67;;;20.75;;
45392;SDS011;31129;44.810;10.334;2024-03-23T11:05:59;45.95;;;25.27;;
45392;SDS011;31129;44.810;10.334;2024-03-23T11:13:39;44.58;;;27.65;;
45392;SDS011;31129;44.810;10.334;2024-03-23T11:16:38;45.15;;;27.15;;
45392;SDS011;31129;44.810;10.334;2024-03-23T11:22:04;22.20;;;7.20;;
45392;SDS011;31129;44.810;10.334;2024-03-23T11:24:36;13.50;;;3.42;;
45392;SDS011;31129;44.810;10.334;2024-03-23T11:27:02;6.30;;;2.75;;
45392;SDS011;31129;44.810;10.334;2024-03-23T11:29:40;13.15;;;3.00;;
45392;SDS011;31129;44.810;10.334;2024-03-23T11:32:07;36.55;;;4.10;;
45392;SDS011;31129;44.810;10.334;2024-03-23T11:34:35;15.13;;;2.67;;
45392;SDS011;31129;44.810;10.334;2024-03-23T11:37:04;5.40;;;2.17;;
45392;SDS011;31129;44.810;10.334;2024-03-23T11:39:30;12.20;;;2.15;;
45392;SDS011;31129;44.810;10.334;2024-03-23T11:41:56;15.50;;;2.92;;
45392;SDS011;31129;44.810;10.334;2024-03-23T11:44:22;15.77;;;3.10;;
45392;SDS011;31129;44.810;10.334;2024-03-23T11:46:50;10.45;;;2.53;;
45392;SDS011;31129;44.810;10.334;2024-03-23T11:49:24;11.87;;;2.83;;
45392;SDS011;31129;44.810;10.334;2024-03-23T11:51:50;6.53;;;2.17;;
45392;SDS011;31129;44.810;10.334;2024-03-23T11:54:20;9.43;;;2.65;;
45392;SDS011;31129;44.810;10.334;2024-03-23T11:56:59;15.23;;;3.03;;
45392;SDS011;31129;44.810;10.334;2024-03-23T11:59:38;12.90;;;3.15;;
45392;SDS011;31129;44.810;10.334;2024-03-23T12:02:12;11.68;;;2.75;;
45392;SDS011;31129;44.810;10.334;2024-03-23T12:04:41;11.45;;;2.35;;
45392;SDS011;31129;44.810;10.334;2024-03-23T12:09:35;15.63;;;3.05;;
45392;SDS011;31129;44.810;10.334;2024-03-23T12:14:33;8.27;;;2.60;;
45392;SDS011;31129;44.810;10.334;2024-03-23T12:17:14;5.22;;;2.15;;
45392;SDS011;31129;44.810;10.334;2024-03-23T12:19:52;12.35;;;2.40;;
45392;SDS011;31129;44.810;10.334;2024-03-23T12:22:21;7.07;;;2.38;;
45392;SDS011;31129;44.810;10.334;2024-03-23T12:24:47;6.22;;;2.30;;
45392;SDS011;31129;44.810;10.334;2024-03-23T12:27:15;10.93;;;2.08;;
45392;SDS011;31129;44.810;10.334;2024-03-23T12:29:44;15.05;;;2.40;;
45392;SDS011;31129;44.810;10.334;2024-03-23T12:32:12;9.95;;;2.38;;
45392;SDS011;31129;44.810;10.334;2024-03-23T12:34:44;6.40;;;2.47;;
45392;SDS011;31129;44.810;10.334;2024-03-23T12:37:10;10.07;;;2.25;;
45392;SDS011;31129;44.810;10.334;2024-03-23T12:39:43;6.43;;;2.10;;
45392;SDS011;31129;44.810;10.334;2024-03-23T12:42:08;10.63;;;2.33;;
45392;SDS011;31129;44.810;10.334;2024-03-23T12:44:34;21.08;;;2.38;;
45392;SDS011;31129;44.810;10.334;2024-03-23T12:47:00;14.02;;;2.65;;
45392;SDS011;31129;44.810;10.334;2024-03-23T12:49:25;13.10;;;2.00;;
45392;SDS011;31129;44.810;10.334;2024-03-23T12:51:59;9.60;;;2.97;;
45392;SDS011;31129;44.810;10.334;2024-03-23T12:54:25;6.88;;;1.88;;
45392;SDS011;31129;44.810;10.334;2024-03-23T12:56:59;5.75;;;1.40;;
45392;SDS011;31129;44.810;10.334;2024-03-23T12:59:25;7.32;;;1.80;;
45392;SDS011;31129;44.810;10.334;2024-03-23T13:01:50;9.02;;;1.90;;
45392;SDS011;31129;44.810;10.334;2024-03-23T13:04:16;7.13;;;1.85;;
45392;SDS011;31129;44.810;10.334;2024-03-23T13:06:42;5.25;;;1.70;;
45392;SDS011;31129;44.810;10.334;2024-03-23T13:09:07;12.10;;;2.08;;
45392;SDS011;31129;44.810;10.334;2024-03-23T13:11:32;10.70;;;1.50;;
45392;SDS011;31129;44.810;10.334;2024-03-23T13:13:58;5.82;;;1.73;;
45392;SDS011;31129;44.810;10.334;2024-03-23T13:16:23;4.13;;;1.70;;
45392;SDS011;31129;44.810;10.334;2024-03-23T13:18:49;7.43;;;1.38;;
45392;SDS011;31129;44.810;10.334;2024-03-23T13:21:14;6.72;;;1.70;;
45392;SDS011;31129;44.810;10.334;2024-03-23T13:23:40;14.98;;;1.98;;
45392;SDS011;31129;44.810;10.334;2024-03-23T13:26:07;10.93;;;1.63;;
45392;SDS011;31129;44.810;10.334;2024-03-23T13:28:33;9.98;;;1.73;;
45392;SDS011;31129;44.810;10.334;2024-03-23T13:31:01;6.13;;;1.98;;
45392;SDS011;31129;44.810;10.334;2024-03-23T13:33:29;5.45;;;1.30;;
45392;SDS011;31129;44.810;10.334;2024-03-23T13:35:57;24.85;;;2.25;;
45392;SDS011;31129;44.810;10.334;2024-03-23T13:38:23;19.20;;;1.80;;
45392;SDS011;31129;44.810;10.334;2024-03-23T13:40:50;14.63;;;1.75;;
45392;SDS011;31129;44.810;10.334;2024-03-23T13:43:24;6.30;;;1.60;;
45392;SDS011;31129;44.810;10.334;2024-03-23T13:45:57;9.90;;;2.20;;
45392;SDS011;31129;44.810;10.334;2024-03-23T13:48:23;2.35;;;0.98;;
45392;SDS011;31129;44.810;10.334;2024-03-23T13:51:02;4.33;;;1.73;;
45392;SDS011;31129;44.810;10.334;2024-03-23T13:53:31;6.10;;;1.92;;
45392;SDS011;31129;44.810;10.334;2024-03-23T13:56:02;14.68;;;1.70;;
45392;SDS011;31129;44.810;10.334;2024-03-23T13:58:28;12.23;;;1.92;;
45392;SDS011;31129;44.810;10.334;2024-03-23T14:00:55;9.27;;;1.73;;
45392;SDS011;31129;44.810;10.334;2024-03-23T14:03:23;14.88;;;2.17;;
45392;SDS011;31129;44.810;10.334;2024-03-23T14:05:48;11.88;;;1.60;;
45392;SDS011;31129;44.810;10.334;2024-03-23T14:08:14;12.32;;;1.75;;
45392;SDS011;31129;44.810;10.334;2024-03-23T14:10:40;10.80;;;1.73;;
45392;SDS011;31129;44.810;10.334;2024-03-23T14:13:06;11.80;;;1.63;;
45392;SDS011;31129;44.810;10.334;2024-03-23T14:15:32;12.02;;;2.20;;
45392;SDS011;31129;44.810;10.334;2024-03-23T14:17:58;12.52;;;3.30;;
45392;SDS011;31129;44.810;10.334;2024-03-23T14:20:24;11.30;;;1.90;;
45392;SDS011;31129;44.810;10.334;2024-03-23T14:22:49;6.25;;;1.92;;
45392;SDS011;31129;44.810;10.334;2024-03-23T14:25:15;9.07;;;1.70;;
45392;SDS011;31129;44.810;10.334;2024-03-23T14:27:43;12.93;;;2.38;;
45392;SDS011;31129;44.810;10.334;2024-03-23T14:30:09;16.90;;;2.03;;
45392;SDS011;31129;44.810;10.334;2024-03-23T14:32:35;13.68;;;2.13;;
45392;SDS011;31129;44.810;10.334;2024-03-23T14:35:05;7.63;;;1.88;;
45392;SDS011;31129;44.810;10.334;2024-03-23T14:37:41;9.15;;;1.65;;
45392;SDS011;31129;44.810;10.334;2024-03-23T14:40:12;10.90;;;2.25;;
45392;SDS011;31129;44.810;10.334;2024-03-23T14:42:38;7.07;;;1.63;;
45392;SDS011;31129;44.810;10.334;2024-03-23T14:45:06;7.13;;;1.52;;
45392;SDS011;31129;44.810;10.334;2024-03-23T14:47:32;6.65;;;1.60;;
45392;SDS011;31129;44.810;10.334;2024-03-23T14:50:04;8.90;;;1.63;;
45392;SDS011;31129;44.810;10.334;2024-03-23T14:52:34;8.48;;;1.67;;
45392;SDS011;31129;44.810;10.334;2024-03-23T14:54:59;9.43;;;1.60;;
45392;SDS011;31129;44.810;10.334;2024-03-23T14:57:24;6.65;;;1.77;;
45392;SDS011;31129;44.810;10.334;2024-03-23T14:59:50;3.80;;;1.42;;
45392;SDS011;31129;44.810;10.334;2024-03-23T15:02:17;4.68;;;1.88;;
45392;SDS011;31129;44.810;10.334;2024-03-23T15:04:42;3.35;;;1.23;;
45392;SDS011;31129;44.810;10.334;2024-03-23T15:07:10;4.53;;;1.38;;
45392;SDS011;31129;44.810;10.334;2024-03-23T15:09:36;4.03;;;1.50;;
45392;SDS011;31129;44.810;10.334;2024-03-23T15:12:04;7.07;;;1.58;;
45392;SDS011;31129;44.810;10.334;2024-03-23T15:14:33;13.30;;;1.60;;
45392;SDS011;31129;44.810;10.334;2024-03-23T15:16:59;7.60;;;1.95;;
45392;SDS011;31129;44.810;10.334;2024-03-23T15:19:25;7.32;;;1.77;;
45392;SDS011;31129;44.810;10.334;2024-03-23T15:21:51;5.60;;;1.27;;
45392;SDS011;31129;44.810;10.334;2024-03-23T15:24:16;6.05;;;1.20;;
45392;SDS011;31129;44.810;10.334;2024-03-23T15:26:41;12.40;;;3.05;;
45392;SDS011;31129;44.810;10.334;2024-03-23T15:29:10;4.55;;;1.20;;
45392;SDS011;31129;44.810;10.334;2024-03-23T15:31:37;6.28;;;1.20;;
45392;SDS011;31129;44.810;10.334;2024-03-23T15:34:03;8.57;;;1.67;;
45392;SDS011;31129;44.810;10.334;2024-03-23T15:36:29;9.48;;;1.60;;
45392;SDS011;31129;44.810;10.334;2024-03-23T15:38:55;7.93;;;1.40;;